Share

Arbyrd, MO

KC0UFP WX (KMOKENNE4) Elev 262 ft | 36.21 °N, 90.07 °W | Change Station

Current weather conditions updated 10 minutes ago

Clear
Clear
52.7 °F
Feels Like 52.7 °F
N
0.0
Wind Variable Wind from NE
Sunrise 6:22 AM
Sunset 7:37 PM
Moon Waning Gibbous

Today is forecast to be nearly the same temperature as yesterday.

Pressure 30.19 in
Visibility 10.0 miles
Clouds Clear
Dew Point 48 °F
Humidity 83%
Rainfall 0.00 in
Snow Depth Not available.
UV 0 out of 16
Pollen 9.50 out of 12
Air Quality Not available.
Flu Activity Sporadic
METAR KHKA 190753Z AUTO 00000KT 10SM CLR 12/10 A3020 RMK AO2 SLP224 T01170100

More Conditions Fewer Conditions

Pressure 30.19 in
Visibility 10.0 miles
Clouds Clear
Dew Point 48 °F
Humidity 83%
Rainfall 0.00 in
Snow Depth Not available.
UV 0 out of 16
Pollen 9.50 out of 12
Air Quality Not available.
Flu Activity Sporadic
METAR KHKA 190753Z AUTO 00000KT 10SM CLR 12/10 A3020 RMK AO2 SLP224 T01170100

More Conditions Fewer Conditions

10-Day Weather Forecast

Almanac

Astronomy

Apr. 19, 2014 Rise Set
Actual Time 6:22 AM CDT 7:37 PM CDT
Civil Twilight 5:55 AM CDT 8:04 PM CDT
Nautical Twilight 5:23 AM CDT 8:36 PM CDT
Astronomical Twilight 4:50 AM CDT 9:09 PM CDT
Moon No Moon Rise 9:45 AM CDT
Length of Visible Light 14h 08m
Length of Day
13h 15m
Tomorrow will be 2m 7s longer.
Waning Gibbous, 81% of the Moon is Illuminated
Today
Waning Gibbous
Apr 22
Last Quarter
Apr 29
New
May 6
First Quarter
May 14
Full

Today's Extremes

State Highs State Lows

Community

  • Sunset Silhouettes
    Sunset Silhouettes
  • FL sunset Perico Isle
    FL sunset Perico Isle
  • Cloudy spring view
    Cloudy spring view
  • Old barn
    Old barn
  • What's for Lunch?
    What's for Lunch?

WunderPhotos

Upload Photos

1,702,673 photos uploaded!

WunderBlogs® & News

Nearby

Snow Depth

Station Depth Elevation
No new snow has been reported.

Coastal Water Temperatures

Place Temperature
No Stations Reporting

Earthquake Activity

City Distance Mag. Time & Date
No recent earthquake activity has been reported nearby.
Minimum magnitude displayed is 2.5.

Nearby Weather Stations

Station Location Temp. Windchill Dew Point Humidity Wind Precip. Elev Updated Type
KC0UFP WX, Kennett, MO 52.7 °F - 48 °F 83% NE  at  0.0 mph - / hr 262 ft 4:26 AM CDT Normal
New Friendship, Marmaduke, AR 48.6 °F 49 °F 44 °F 83% NW  at  0.8 mph 0.00 in / hr 266 ft 4:37 AM CDT Normal
Kennett E911, Kennett, MO 54.4 °F - 48 °F 78% NNE  at  0.0 mph 0.00 in / hr 262 ft 4:37 AM CDT Rapid Fire
MesoWest BETHEL , Brookland, AR 51 °F - - - North  at  - 0.00 in / hr 288 ft 1:10 AM CDT MADIS
MesoWest PIGGOT , Piggott, AR 58 °F - - - North  at  - 0.00 in / hr 287 ft 3:35 AM CDT MADIS
Peach Orchard, Gideon, MO 50.0 °F - 47 °F 89% NNE  at  0.0 mph 0.00 in / hr 263 ft 4:37 AM CDT Rapid Fire

Show More Stations Show Fewer Stations

What do you think?

We're not finished. Please let us know what you like, what you don't like, and what you are still missing.